Terminal Aerodrome Forecast
Issued by NWS

Current Version | Previous Version | Text Only | Print | Product List | Glossary On
Versions: 1 2 3 4 5 6 7 8 9 10 11 12 13 14 15 16 17 18 19
000 FTUS41 KBOX 182332 TAFBAF TAF KBAF 182332Z 1900/1924 36005KT P6SM OVC010 FM190500 00000KT 3SM BR OVC010 FM191100 VRB03KT 5SM BR BKN040 FM191400 VRB03KT P6SM BKN100 FM191500 VRB03KT P6SM SCT130=

USA.gov is the U.S. government's official web portal to all federal, state and local government web resources and services.